sensor_id;sensor_type;location;lat;lon;timestamp;temperature;humidity
33761;DHT22;20084;47.912;19.044;2022-09-13T00:00:51;11.00;99.90
33761;DHT22;20084;47.912;19.044;2022-09-13T00:03:17;11.10;99.90
33761;DHT22;20084;47.912;19.044;2022-09-13T00:05:43;11.10;99.90
33761;DHT22;20084;47.912;19.044;2022-09-13T00:08:09;11.00;99.90
33761;DHT22;20084;47.912;19.044;2022-09-13T00:10:36;11.00;99.90
33761;DHT22;20084;47.912;19.044;2022-09-13T00:13:04;11.00;99.90
33761;DHT22;20084;47.912;19.044;2022-09-13T00:15:30;11.00;99.90
33761;DHT22;20084;47.912;19.044;2022-09-13T00:17:55;11.00;99.90
33761;DHT22;20084;47.912;19.044;2022-09-13T00:20:21;11.00;99.90
33761;DHT22;20084;47.912;19.044;2022-09-13T00:22:47;11.00;99.90
33761;DHT22;20084;47.912;19.044;2022-09-13T00:25:13;11.00;99.90
33761;DHT22;20084;47.912;19.044;2022-09-13T00:27:38;11.00;99.90
33761;DHT22;20084;47.912;19.044;2022-09-13T00:30:05;10.90;99.90
33761;DHT22;20084;47.912;19.044;2022-09-13T00:32:33;10.80;99.90
33761;DHT22;20084;47.912;19.044;2022-09-13T00:34:59;10.70;99.90
33761;DHT22;20084;47.912;19.044;2022-09-13T00:37:25;10.70;99.90
33761;DHT22;20084;47.912;19.044;2022-09-13T00:39:50;10.70;99.90
33761;DHT22;20084;47.912;19.044;2022-09-13T00:42:16;10.80;99.90
33761;DHT22;20084;47.912;19.044;2022-09-13T00:44:56;10.80;99.90
33761;DHT22;20084;47.912;19.044;2022-09-13T00:50:19;10.80;99.90
33761;DHT22;20084;47.912;19.044;2022-09-13T00:52:54;10.90;99.90
33761;DHT22;20084;47.912;19.044;2022-09-13T00:55:36;10.90;99.90
33761;DHT22;20084;47.912;19.044;2022-09-13T00:58:07;10.80;99.90
33761;DHT22;20084;47.912;19.044;2022-09-13T01:00:34;10.80;99.90
33761;DHT22;20084;47.912;19.044;2022-09-13T01:03:03;10.70;99.90
33761;DHT22;20084;47.912;19.044;2022-09-13T01:05:35;10.70;99.90
33761;DHT22;20084;47.912;19.044;2022-09-13T01:08:05;10.80;99.90
33761;DHT22;20084;47.912;19.044;2022-09-13T01:10:37;10.80;99.90
33761;DHT22;20084;47.912;19.044;2022-09-13T01:13:05;10.90;99.90
33761;DHT22;20084;47.912;19.044;2022-09-13T01:15:42;11.00;99.90
33761;DHT22;20084;47.912;19.044;2022-09-13T01:18:08;11.00;99.90
33761;DHT22;20084;47.912;19.044;2022-09-13T01:29:06;11.00;99.90
33761;DHT22;20084;47.912;19.044;2022-09-13T01:31:42;10.70;99.90
33761;DHT22;20084;47.912;19.044;2022-09-13T01:34:45;10.50;99.90
33761;DHT22;20084;47.912;19.044;2022-09-13T01:37:25;10.40;99.90
33761;DHT22;20084;47.912;19.044;2022-09-13T01:42:56;10.30;99.90
33761;DHT22;20084;47.912;19.044;2022-09-13T01:45:40;10.20;99.90
33761;DHT22;20084;47.912;19.044;2022-09-13T01:48:27;10.20;99.90
33761;DHT22;20084;47.912;19.044;2022-09-13T01:51:05;10.00;99.90
33761;DHT22;20084;47.912;19.044;2022-09-13T01:53:39;9.90;99.90
33761;DHT22;20084;47.912;19.044;2022-09-13T01:56:15;9.80;99.90
33761;DHT22;20084;47.912;19.044;2022-09-13T01:58:55;9.80;99.90
33761;DHT22;20084;47.912;19.044;2022-09-13T02:01:32;9.80;99.90
33761;DHT22;20084;47.912;19.044;2022-09-13T02:04:06;9.80;99.90
33761;DHT22;20084;47.912;19.044;2022-09-13T02:06:37;9.80;99.90
33761;DHT22;20084;47.912;19.044;2022-09-13T02:09:17;9.80;99.90
33761;DHT22;20084;47.912;19.044;2022-09-13T02:11:47;9.80;99.90
33761;DHT22;20084;47.912;19.044;2022-09-13T02:14:18;9.80;99.90
33761;DHT22;20084;47.912;19.044;2022-09-13T02:19:37;9.70;99.90
33761;DHT22;20084;47.912;19.044;2022-09-13T02:22:06;9.70;99.90
33761;DHT22;20084;47.912;19.044;2022-09-13T02:24:41;9.70;99.90
33761;DHT22;20084;47.912;19.044;2022-09-13T02:27:12;9.60;99.90
33761;DHT22;20084;47.912;19.044;2022-09-13T02:29:43;9.60;99.90
33761;DHT22;20084;47.912;19.044;2022-09-13T02:32:29;9.50;99.90
33761;DHT22;20084;47.912;19.044;2022-09-13T02:35:04;9.50;99.90
33761;DHT22;20084;47.912;19.044;2022-09-13T02:37:33;9.40;99.90
33761;DHT22;20084;47.912;19.044;2022-09-13T02:40:10;9.50;99.90
33761;DHT22;20084;47.912;19.044;2022-09-13T02:42:49;9.50;99.90
33761;DHT22;20084;47.912;19.044;2022-09-13T02:45:17;9.50;99.90
33761;DHT22;20084;47.912;19.044;2022-09-13T02:47:55;9.40;99.90
33761;DHT22;20084;47.912;19.044;2022-09-13T02:50:58;9.40;99.90
33761;DHT22;20084;47.912;19.044;2022-09-13T02:53:40;9.40;99.90
33761;DHT22;20084;47.912;19.044;2022-09-13T02:56:23;9.50;99.90
33761;DHT22;20084;47.912;19.044;2022-09-13T03:01:34;9.60;99.90
33761;DHT22;20084;47.912;19.044;2022-09-13T03:04:02;9.60;99.90
33761;DHT22;20084;47.912;19.044;2022-09-13T03:06:28;9.60;99.90
33761;DHT22;20084;47.912;19.044;2022-09-13T03:08:57;9.50;99.90
33761;DHT22;20084;47.912;19.044;2022-09-13T03:11:27;9.40;99.90
33761;DHT22;20084;47.912;19.044;2022-09-13T03:28:08;9.20;99.90
33761;DHT22;20084;47.912;19.044;2022-09-13T03:30:47;9.30;99.90
33761;DHT22;20084;47.912;19.044;2022-09-13T03:33:46;9.30;99.90
33761;DHT22;20084;47.912;19.044;2022-09-13T03:36:23;9.20;99.90
33761;DHT22;20084;47.912;19.044;2022-09-13T03:39:11;9.10;99.90
33761;DHT22;20084;47.912;19.044;2022-09-13T03:41:45;9.10;99.90
33761;DHT22;20084;47.912;19.044;2022-09-13T03:44:13;8.90;99.90
33761;DHT22;20084;47.912;19.044;2022-09-13T03:46:43;8.60;99.90
33761;DHT22;20084;47.912;19.044;2022-09-13T03:49:13;8.40;99.90
33761;DHT22;20084;47.912;19.044;2022-09-13T03:51:40;8.40;99.90
33761;DHT22;20084;47.912;19.044;2022-09-13T03:54:10;8.40;99.90
33761;DHT22;20084;47.912;19.044;2022-09-13T03:56:39;8.40;99.90
33761;DHT22;20084;47.912;19.044;2022-09-13T03:59:04;8.40;99.90
33761;DHT22;20084;47.912;19.044;2022-09-13T04:01:30;8.40;99.90
33761;DHT22;20084;47.912;19.044;2022-09-13T04:03:55;8.50;99.90
33761;DHT22;20084;47.912;19.044;2022-09-13T04:06:21;8.40;99.90
33761;DHT22;20084;47.912;19.044;2022-09-13T04:08:47;8.50;99.90
33761;DHT22;20084;47.912;19.044;2022-09-13T04:11:12;8.50;99.90
33761;DHT22;20084;47.912;19.044;2022-09-13T04:13:38;8.60;99.90
33761;DHT22;20084;47.912;19.044;2022-09-13T04:16:05;8.60;99.90
33761;DHT22;20084;47.912;19.044;2022-09-13T04:18:31;8.60;99.90
33761;DHT22;20084;47.912;19.044;2022-09-13T04:20:58;8.60;99.90
33761;DHT22;20084;47.912;19.044;2022-09-13T04:23:25;8.60;99.90
33761;DHT22;20084;47.912;19.044;2022-09-13T04:25:51;8.60;99.90
33761;DHT22;20084;47.912;19.044;2022-09-13T04:28:18;8.60;99.90
33761;DHT22;20084;47.912;19.044;2022-09-13T04:30:45;8.60;99.90
33761;DHT22;20084;47.912;19.044;2022-09-13T04:33:12;8.70;99.90
33761;DHT22;20084;47.912;19.044;2022-09-13T04:35:57;8.70;99.90
33761;DHT22;20084;47.912;19.044;2022-09-13T04:38:22;8.80;99.90
33761;DHT22;20084;47.912;19.044;2022-09-13T04:40:55;8.80;99.90
33761;DHT22;20084;47.912;19.044;2022-09-13T04:43:22;8.80;99.90
33761;DHT22;20084;47.912;19.044;2022-09-13T04:45:47;8.90;99.90
33761;DHT22;20084;47.912;19.044;2022-09-13T04:48:13;8.70;99.90
33761;DHT22;20084;47.912;19.044;2022-09-13T04:50:40;8.70;99.90
33761;DHT22;20084;47.912;19.044;2022-09-13T04:53:05;8.80;99.90
33761;DHT22;20084;47.912;19.044;2022-09-13T04:55:31;8.80;99.90
33761;DHT22;20084;47.912;19.044;2022-09-13T04:57:56;8.80;99.90
33761;DHT22;20084;47.912;19.044;2022-09-13T05:00:22;8.80;99.90
33761;DHT22;20084;47.912;19.044;2022-09-13T05:02:54;8.70;99.90
33761;DHT22;20084;47.912;19.044;2022-09-13T05:05:19;8.80;99.90
33761;DHT22;20084;47.912;19.044;2022-09-13T05:07:49;8.90;99.90
33761;DHT22;20084;47.912;19.044;2022-09-13T05:10:15;9.00;99.90
33761;DHT22;20084;47.912;19.044;2022-09-13T05:12:41;9.10;99.90
33761;DHT22;20084;47.912;19.044;2022-09-13T05:15:07;9.30;99.90
33761;DHT22;20084;47.912;19.044;2022-09-13T05:17:32;9.50;99.90
33761;DHT22;20084;47.912;19.044;2022-09-13T05:19:58;9.70;99.90
33761;DHT22;20084;47.912;19.044;2022-09-13T05:22:24;9.90;99.90
33761;DHT22;20084;47.912;19.044;2022-09-13T05:24:49;10.10;99.90
33761;DHT22;20084;47.912;19.044;2022-09-13T05:27:15;10.30;99.90
33761;DHT22;20084;47.912;19.044;2022-09-13T05:29:40;10.50;99.90
33761;DHT22;20084;47.912;19.044;2022-09-13T05:32:06;10.70;99.90
33761;DHT22;20084;47.912;19.044;2022-09-13T05:34:32;10.90;99.90
33761;DHT22;20084;47.912;19.044;2022-09-13T05:36:57;11.10;99.90
33761;DHT22;20084;47.912;19.044;2022-09-13T05:39:23;11.30;99.90
33761;DHT22;20084;47.912;19.044;2022-09-13T05:41:49;11.50;99.90
33761;DHT22;20084;47.912;19.044;2022-09-13T05:44:14;11.80;99.90
33761;DHT22;20084;47.912;19.044;2022-09-13T05:46:41;12.00;99.90
33761;DHT22;20084;47.912;19.044;2022-09-13T05:49:07;12.00;99.90
33761;DHT22;20084;47.912;19.044;2022-09-13T05:51:32;12.10;99.90
33761;DHT22;20084;47.912;19.044;2022-09-13T05:53:58;12.10;99.90
33761;DHT22;20084;47.912;19.044;2022-09-13T05:56:27;12.30;99.90
33761;DHT22;20084;47.912;19.044;2022-09-13T05:58:53;12.60;99.90
33761;DHT22;20084;47.912;19.044;2022-09-13T06:01:22;12.90;99.90
33761;DHT22;20084;47.912;19.044;2022-09-13T06:03:52;13.10;99.90
33761;DHT22;20084;47.912;19.044;2022-09-13T06:06:18;13.30;99.90
33761;DHT22;20084;47.912;19.044;2022-09-13T06:08:44;13.50;99.90
33761;DHT22;20084;47.912;19.044;2022-09-13T06:11:12;13.60;99.90
33761;DHT22;20084;47.912;19.044;2022-09-13T06:13:38;13.70;99.90
33761;DHT22;20084;47.912;19.044;2022-09-13T06:16:06;13.80;99.90
33761;DHT22;20084;47.912;19.044;2022-09-13T06:18:34;14.10;99.90
33761;DHT22;20084;47.912;19.044;2022-09-13T06:21:13;14.30;99.90
33761;DHT22;20084;47.912;19.044;2022-09-13T06:23:46;14.50;99.90
33761;DHT22;20084;47.912;19.044;2022-09-13T06:26:14;14.70;99.90
33761;DHT22;20084;47.912;19.044;2022-09-13T06:28:40;14.80;99.90
33761;DHT22;20084;47.912;19.044;2022-09-13T06:31:10;14.70;99.90
33761;DHT22;20084;47.912;19.044;2022-09-13T06:33:39;14.70;99.90
33761;DHT22;20084;47.912;19.044;2022-09-13T06:36:09;14.90;99.90
33761;DHT22;20084;47.912;19.044;2022-09-13T06:38:35;15.10;99.90
33761;DHT22;20084;47.912;19.044;2022-09-13T06:41:04;15.30;99.90
33761;DHT22;20084;47.912;19.044;2022-09-13T06:43:30;15.40;99.90
33761;DHT22;20084;47.912;19.044;2022-09-13T06:46:04;15.60;99.90
33761;DHT22;20084;47.912;19.044;2022-09-13T06:48:35;15.90;99.90
33761;DHT22;20084;47.912;19.044;2022-09-13T06:51:03;16.10;99.90
33761;DHT22;20084;47.912;19.044;2022-09-13T06:53:29;16.30;99.90
33761;DHT22;20084;47.912;19.044;2022-09-13T06:56:35;16.60;99.90
33761;DHT22;20084;47.912;19.044;2022-09-13T06:58:58;16.80;99.90
33761;DHT22;20084;47.912;19.044;2022-09-13T07:01:26;17.00;99.90
33761;DHT22;20084;47.912;19.044;2022-09-13T07:04:01;17.20;99.90
33761;DHT22;20084;47.912;19.044;2022-09-13T07:06:29;17.40;99.90
33761;DHT22;20084;47.912;19.044;2022-09-13T07:08:58;17.60;99.90
33761;DHT22;20084;47.912;19.044;2022-09-13T07:11:26;17.70;99.90
33761;DHT22;20084;47.912;19.044;2022-09-13T07:13:54;17.80;99.90
33761;DHT22;20084;47.912;19.044;2022-09-13T07:16:22;18.00;99.90
33761;DHT22;20084;47.912;19.044;2022-09-13T07:19:03;18.10;99.90
33761;DHT22;20084;47.912;19.044;2022-09-13T07:21:33;18.20;99.90
33761;DHT22;20084;47.912;19.044;2022-09-13T07:23:59;18.30;99.90
33761;DHT22;20084;47.912;19.044;2022-09-13T07:26:27;18.40;99.90
33761;DHT22;20084;47.912;19.044;2022-09-13T07:28:54;18.50;99.90
33761;DHT22;20084;47.912;19.044;2022-09-13T07:31:25;18.60;99.90
33761;DHT22;20084;47.912;19.044;2022-09-13T07:33:57;18.70;99.90
33761;DHT22;20084;47.912;19.044;2022-09-13T07:36:23;18.90;99.90
33761;DHT22;20084;47.912;19.044;2022-09-13T07:38:49;19.00;99.90
33761;DHT22;20084;47.912;19.044;2022-09-13T07:41:17;19.10;99.90
33761;DHT22;20084;47.912;19.044;2022-09-13T07:43:43;19.30;99.90
33761;DHT22;20084;47.912;19.044;2022-09-13T07:48:38;19.30;99.50
33761;DHT22;20084;47.912;19.044;2022-09-13T07:51:07;19.30;99.90
33761;DHT22;20084;47.912;19.044;2022-09-13T07:53:34;19.50;98.70
33761;DHT22;20084;47.912;19.044;2022-09-13T07:56:02;19.50;99.00
33761;DHT22;20084;47.912;19.044;2022-09-13T07:58:28;19.70;98.50
33761;DHT22;20084;47.912;19.044;2022-09-13T08:01:03;19.70;97.90
33761;DHT22;20084;47.912;19.044;2022-09-13T08:03:29;19.80;96.70
33761;DHT22;20084;47.912;19.044;2022-09-13T08:05:55;19.80;97.00
33761;DHT22;20084;47.912;19.044;2022-09-13T08:08:20;19.80;96.10
33761;DHT22;20084;47.912;19.044;2022-09-13T08:10:46;19.70;96.10
33761;DHT22;20084;47.912;19.044;2022-09-13T08:13:14;19.70;95.70
33761;DHT22;20084;47.912;19.044;2022-09-13T08:15:39;19.70;95.50
33761;DHT22;20084;47.912;19.044;2022-09-13T08:18:05;19.80;96.10
33761;DHT22;20084;47.912;19.044;2022-09-13T08:20:35;20.00;95.90
33761;DHT22;20084;47.912;19.044;2022-09-13T08:23:01;20.00;95.80
33761;DHT22;20084;47.912;19.044;2022-09-13T08:25:26;20.10;94.70
33761;DHT22;20084;47.912;19.044;2022-09-13T08:27:52;20.10;94.60
33761;DHT22;20084;47.912;19.044;2022-09-13T08:30:18;20.10;94.50
33761;DHT22;20084;47.912;19.044;2022-09-13T08:32:43;20.10;93.70
33761;DHT22;20084;47.912;19.044;2022-09-13T08:35:09;20.10;94.50
33761;DHT22;20084;47.912;19.044;2022-09-13T08:37:34;20.10;94.10
33761;DHT22;20084;47.912;19.044;2022-09-13T08:40:00;20.10;93.10
33761;DHT22;20084;47.912;19.044;2022-09-13T08:42:47;20.10;93.70
33761;DHT22;20084;47.912;19.044;2022-09-13T08:45:14;20.10;93.90
33761;DHT22;20084;47.912;19.044;2022-09-13T08:47:47;20.20;93.60
33761;DHT22;20084;47.912;19.044;2022-09-13T08:50:24;20.20;94.20
33761;DHT22;20084;47.912;19.044;2022-09-13T08:53:11;20.30;93.50
33761;DHT22;20084;47.912;19.044;2022-09-13T09:04:12;20.50;92.50
33761;DHT22;20084;47.912;19.044;2022-09-13T09:06:40;20.40;92.40
33761;DHT22;20084;47.912;19.044;2022-09-13T09:09:12;20.40;92.20
33761;DHT22;20084;47.912;19.044;2022-09-13T09:14:33;20.40;92.10
33761;DHT22;20084;47.912;19.044;2022-09-13T09:17:03;20.60;91.60
33761;DHT22;20084;47.912;19.044;2022-09-13T09:19:37;20.60;91.70
33761;DHT22;20084;47.912;19.044;2022-09-13T09:22:14;20.70;91.30
33761;DHT22;20084;47.912;19.044;2022-09-13T09:24:44;20.80;91.60
33761;DHT22;20084;47.912;19.044;2022-09-13T09:27:17;20.90;91.00
33761;DHT22;20084;47.912;19.044;2022-09-13T09:29:44;20.90;90.60
33761;DHT22;20084;47.912;19.044;2022-09-13T09:32:41;20.80;89.90
33761;DHT22;20084;47.912;19.044;2022-09-13T09:41:05;21.10;89.30
33761;DHT22;20084;47.912;19.044;2022-09-13T09:46:27;21.20;90.50
33761;DHT22;20084;47.912;19.044;2022-09-13T09:48:58;21.20;90.70
33761;DHT22;20084;47.912;19.044;2022-09-13T09:51:27;21.20;88.50
33761;DHT22;20084;47.912;19.044;2022-09-13T09:54:00;21.10;88.40
33761;DHT22;20084;47.912;19.044;2022-09-13T09:56:32;21.20;90.30
33761;DHT22;20084;47.912;19.044;2022-09-13T09:58:58;21.20;89.20
33761;DHT22;20084;47.912;19.044;2022-09-13T10:04:04;21.20;90.00
33761;DHT22;20084;47.912;19.044;2022-09-13T10:06:33;21.20;88.80
33761;DHT22;20084;47.912;19.044;2022-09-13T10:09:03;21.10;89.00
33761;DHT22;20084;47.912;19.044;2022-09-13T10:11:43;21.20;89.30
33761;DHT22;20084;47.912;19.044;2022-09-13T10:14:38;21.20;89.60
33761;DHT22;20084;47.912;19.044;2022-09-13T10:17:24;21.20;88.70
33761;DHT22;20084;47.912;19.044;2022-09-13T10:22:17;21.20;88.90
33761;DHT22;20084;47.912;19.044;2022-09-13T10:24:43;21.30;90.00
33761;DHT22;20084;47.912;19.044;2022-09-13T10:27:21;21.30;87.80
33761;DHT22;20084;47.912;19.044;2022-09-13T10:29:52;21.40;88.80
33761;DHT22;20084;47.912;19.044;2022-09-13T10:32:21;21.40;85.30
33761;DHT22;20084;47.912;19.044;2022-09-13T10:34:48;21.40;86.90
33761;DHT22;20084;47.912;19.044;2022-09-13T10:37:33;21.50;87.90
33761;DHT22;20084;47.912;19.044;2022-09-13T10:40:04;21.60;90.00
33761;DHT22;20084;47.912;19.044;2022-09-13T10:42:33;21.70;88.80
33761;DHT22;20084;47.912;19.044;2022-09-13T10:45:04;21.70;85.90
33761;DHT22;20084;47.912;19.044;2022-09-13T10:47:38;21.60;87.20
33761;DHT22;20084;47.912;19.044;2022-09-13T10:50:25;21.60;87.00
33761;DHT22;20084;47.912;19.044;2022-09-13T10:52:57;21.70;85.70
33761;DHT22;20084;47.912;19.044;2022-09-13T10:55:29;21.60;84.40
33761;DHT22;20084;47.912;19.044;2022-09-13T10:58:16;21.50;84.70
33761;DHT22;20084;47.912;19.044;2022-09-13T11:09:32;21.30;82.10
33761;DHT22;20084;47.912;19.044;2022-09-13T11:39:44;22.20;77.00
33761;DHT22;20084;47.912;19.044;2022-09-13T11:45:27;22.50;79.80
33761;DHT22;20084;47.912;19.044;2022-09-13T11:53:49;22.90;78.90
33761;DHT22;20084;47.912;19.044;2022-09-13T11:56:42;22.80;77.50
33761;DHT22;20084;47.912;19.044;2022-09-13T11:59:37;22.60;77.70
33761;DHT22;20084;47.912;19.044;2022-09-13T12:05:17;22.70;77.90
33761;DHT22;20084;47.912;19.044;2022-09-13T12:07:47;22.70;75.00
33761;DHT22;20084;47.912;19.044;2022-09-13T12:12:46;22.80;75.30
33761;DHT22;20084;47.912;19.044;2022-09-13T12:15:20;22.80;77.00
33761;DHT22;20084;47.912;19.044;2022-09-13T12:17:51;22.80;76.60
33761;DHT22;20084;47.912;19.044;2022-09-13T12:20:45;22.80;71.00
33761;DHT22;20084;47.912;19.044;2022-09-13T12:23:19;22.60;74.00
33761;DHT22;20084;47.912;19.044;2022-09-13T12:25:53;22.60;75.30
33761;DHT22;20084;47.912;19.044;2022-09-13T12:28:44;22.70;78.00
33761;DHT22;20084;47.912;19.044;2022-09-13T12:31:16;22.80;74.10
33761;DHT22;20084;47.912;19.044;2022-09-13T12:33:44;22.80;78.40
33761;DHT22;20084;47.912;19.044;2022-09-13T12:36:27;22.80;75.00
33761;DHT22;20084;47.912;19.044;2022-09-13T12:42:27;22.80;72.40
33761;DHT22;20084;47.912;19.044;2022-09-13T13:04:51;23.00;72.00
33761;DHT22;20084;47.912;19.044;2022-09-13T13:07:22;23.00;74.60
33761;DHT22;20084;47.912;19.044;2022-09-13T13:09:50;23.00;74.40
33761;DHT22;20084;47.912;19.044;2022-09-13T13:17:47;23.00;76.10
33761;DHT22;20084;47.912;19.044;2022-09-13T13:20:43;23.20;77.80
33761;DHT22;20084;47.912;19.044;2022-09-13T13:23:35;23.30;72.90
33761;DHT22;20084;47.912;19.044;2022-09-13T13:41:48;23.40;71.40
33761;DHT22;20084;47.912;19.044;2022-09-13T13:54:58;23.70;70.10
33761;DHT22;20084;47.912;19.044;2022-09-13T14:00:28;23.70;71.40
33761;DHT22;20084;47.912;19.044;2022-09-13T14:05:50;23.40;69.80
33761;DHT22;20084;47.912;19.044;2022-09-13T14:08:41;23.30;71.40
33761;DHT22;20084;47.912;19.044;2022-09-13T14:11:35;23.50;73.30
33761;DHT22;20084;47.912;19.044;2022-09-13T14:19:30;23.40;71.60
33761;DHT22;20084;47.912;19.044;2022-09-13T14:22:21;23.50;71.60
33761;DHT22;20084;47.912;19.044;2022-09-13T14:24:49;23.50;69.80
33761;DHT22;20084;47.912;19.044;2022-09-13T14:29:46;23.60;71.70
33761;DHT22;20084;47.912;19.044;2022-09-13T14:32:16;23.50;71.40
33761;DHT22;20084;47.912;19.044;2022-09-13T14:34:57;23.40;72.80
33761;DHT22;20084;47.912;19.044;2022-09-13T14:37:28;23.40;72.10
33761;DHT22;20084;47.912;19.044;2022-09-13T14:40:00;23.40;73.30
33761;DHT22;20084;47.912;19.044;2022-09-13T14:42:37;23.30;74.30
33761;DHT22;20084;47.912;19.044;2022-09-13T14:45:04;23.20;75.70
33761;DHT22;20084;47.912;19.044;2022-09-13T14:47:37;23.20;73.90
33761;DHT22;20084;47.912;19.044;2022-09-13T14:50:19;23.20;75.40
33761;DHT22;20084;47.912;19.044;2022-09-13T14:52:59;23.20;75.40
33761;DHT22;20084;47.912;19.044;2022-09-13T14:55:36;23.20;75.60
33761;DHT22;20084;47.912;19.044;2022-09-13T14:58:06;23.40;76.30
33761;DHT22;20084;47.912;19.044;2022-09-13T15:00:51;23.60;73.80
33761;DHT22;20084;47.912;19.044;2022-09-13T15:03:19;23.80;73.10
33761;DHT22;20084;47.912;19.044;2022-09-13T15:05:58;24.00;73.30
33761;DHT22;20084;47.912;19.044;2022-09-13T15:11:12;24.00;73.50
33761;DHT22;20084;47.912;19.044;2022-09-13T15:13:40;24.00;71.20
33761;DHT22;20084;47.912;19.044;2022-09-13T15:16:24;23.80;71.50
33761;DHT22;20084;47.912;19.044;2022-09-13T15:19:14;23.60;74.10
33761;DHT22;20084;47.912;19.044;2022-09-13T15:21:40;23.40;72.40
33761;DHT22;20084;47.912;19.044;2022-09-13T15:24:20;23.20;73.60
33761;DHT22;20084;47.912;19.044;2022-09-13T15:26:46;23.20;74.80
33761;DHT22;20084;47.912;19.044;2022-09-13T15:29:17;23.10;74.10
33761;DHT22;20084;47.912;19.044;2022-09-13T15:31:43;23.00;74.50
33761;DHT22;20084;47.912;19.044;2022-09-13T15:37:09;22.70;76.70
33761;DHT22;20084;47.912;19.044;2022-09-13T15:39:48;22.70;77.30
33761;DHT22;20084;47.912;19.044;2022-09-13T15:42:15;22.70;76.60
33761;DHT22;20084;47.912;19.044;2022-09-13T15:44:41;22.60;76.90
33761;DHT22;20084;47.912;19.044;2022-09-13T15:47:15;22.50;77.90
33761;DHT22;20084;47.912;19.044;2022-09-13T15:49:47;22.60;78.60
33761;DHT22;20084;47.912;19.044;2022-09-13T15:52:14;22.50;78.60
33761;DHT22;20084;47.912;19.044;2022-09-13T15:54:42;22.40;78.60
33761;DHT22;20084;47.912;19.044;2022-09-13T15:57:15;22.40;78.90
33761;DHT22;20084;47.912;19.044;2022-09-13T15:59:41;22.30;79.00
33761;DHT22;20084;47.912;19.044;2022-09-13T16:02:22;22.10;79.70
33761;DHT22;20084;47.912;19.044;2022-09-13T16:04:49;22.10;80.80
33761;DHT22;20084;47.912;19.044;2022-09-13T16:07:16;22.10;82.40
33761;DHT22;20084;47.912;19.044;2022-09-13T16:09:42;22.10;83.60
33761;DHT22;20084;47.912;19.044;2022-09-13T16:12:08;22.00;83.40
33761;DHT22;20084;47.912;19.044;2022-09-13T16:14:33;22.00;83.50
33761;DHT22;20084;47.912;19.044;2022-09-13T16:17:06;22.00;84.60
33761;DHT22;20084;47.912;19.044;2022-09-13T16:19:34;22.00;85.40
33761;DHT22;20084;47.912;19.044;2022-09-13T16:22:00;22.00;86.60
33761;DHT22;20084;47.912;19.044;2022-09-13T16:24:26;22.00;86.90
33761;DHT22;20084;47.912;19.044;2022-09-13T16:26:52;22.00;86.80
33761;DHT22;20084;47.912;19.044;2022-09-13T16:29:17;21.90;86.70
33761;DHT22;20084;47.912;19.044;2022-09-13T16:31:43;21.90;89.40
33761;DHT22;20084;47.912;19.044;2022-09-13T16:34:08;21.70;90.60
33761;DHT22;20084;47.912;19.044;2022-09-13T16:36:34;21.60;90.10
33761;DHT22;20084;47.912;19.044;2022-09-13T16:39:00;21.50;90.30
33761;DHT22;20084;47.912;19.044;2022-09-13T16:41:26;21.50;90.00
33761;DHT22;20084;47.912;19.044;2022-09-13T16:43:53;21.40;90.70
33761;DHT22;20084;47.912;19.044;2022-09-13T16:46:19;21.20;91.50
33761;DHT22;20084;47.912;19.044;2022-09-13T16:48:54;21.10;91.70
33761;DHT22;20084;47.912;19.044;2022-09-13T16:51:21;21.00;92.20
33761;DHT22;20084;47.912;19.044;2022-09-13T16:53:49;20.90;92.90
33761;DHT22;20084;47.912;19.044;2022-09-13T16:56:17;20.70;93.70
33761;DHT22;20084;47.912;19.044;2022-09-13T16:58:44;20.50;94.60
33761;DHT22;20084;47.912;19.044;2022-09-13T17:01:16;20.40;94.40
33761;DHT22;20084;47.912;19.044;2022-09-13T17:03:42;20.30;94.90
33761;DHT22;20084;47.912;19.044;2022-09-13T17:06:10;20.10;95.10
33761;DHT22;20084;47.912;19.044;2022-09-13T17:08:37;20.10;95.80
33761;DHT22;20084;47.912;19.044;2022-09-13T17:11:11;20.00;95.60
33761;DHT22;20084;47.912;19.044;2022-09-13T17:13:38;19.90;96.20
33761;DHT22;20084;47.912;19.044;2022-09-13T17:16:05;19.90;96.70
33761;DHT22;20084;47.912;19.044;2022-09-13T17:18:31;19.70;97.20
33761;DHT22;20084;47.912;19.044;2022-09-13T17:20:58;19.70;97.60
33761;DHT22;20084;47.912;19.044;2022-09-13T17:23:25;19.60;98.10
33761;DHT22;20084;47.912;19.044;2022-09-13T17:25:51;19.50;97.90
33761;DHT22;20084;47.912;19.044;2022-09-13T17:28:17;19.50;98.50
33761;DHT22;20084;47.912;19.044;2022-09-13T17:30:45;19.40;99.20
33761;DHT22;20084;47.912;19.044;2022-09-13T17:33:11;19.30;99.70
33761;DHT22;20084;47.912;19.044;2022-09-13T17:35:37;19.20;99.90
33761;DHT22;20084;47.912;19.044;2022-09-13T17:38:02;19.10;99.90
33761;DHT22;20084;47.912;19.044;2022-09-13T17:40:29;19.00;99.90
33761;DHT22;20084;47.912;19.044;2022-09-13T17:42:55;19.00;99.90
33761;DHT22;20084;47.912;19.044;2022-09-13T17:45:21;18.90;99.90
33761;DHT22;20084;47.912;19.044;2022-09-13T17:47:47;18.80;99.90
33761;DHT22;20084;47.912;19.044;2022-09-13T17:50:16;18.70;99.90
33761;DHT22;20084;47.912;19.044;2022-09-13T17:52:41;18.60;99.90
33761;DHT22;20084;47.912;19.044;2022-09-13T17:55:07;18.40;99.90
33761;DHT22;20084;47.912;19.044;2022-09-13T17:57:33;18.30;99.90
33761;DHT22;20084;47.912;19.044;2022-09-13T17:59:59;18.30;99.90
33761;DHT22;20084;47.912;19.044;2022-09-13T18:02:25;18.20;99.90
33761;DHT22;20084;47.912;19.044;2022-09-13T18:04:52;18.10;99.90
33761;DHT22;20084;47.912;19.044;2022-09-13T18:07:18;18.10;99.90
33761;DHT22;20084;47.912;19.044;2022-09-13T18:09:44;18.00;99.90
33761;DHT22;20084;47.912;19.044;2022-09-13T18:12:10;18.00;99.90
33761;DHT22;20084;47.912;19.044;2022-09-13T18:14:37;18.00;99.90
33761;DHT22;20084;47.912;19.044;2022-09-13T18:17:04;18.00;99.90
33761;DHT22;20084;47.912;19.044;2022-09-13T18:19:38;18.00;99.90
33761;DHT22;20084;47.912;19.044;2022-09-13T18:22:05;18.00;99.90
33761;DHT22;20084;47.912;19.044;2022-09-13T18:24:30;17.90;99.90
33761;DHT22;20084;47.912;19.044;2022-09-13T18:26:58;17.80;99.90
33761;DHT22;20084;47.912;19.044;2022-09-13T18:29:24;17.80;99.90
33761;DHT22;20084;47.912;19.044;2022-09-13T18:31:50;17.80;99.90
33761;DHT22;20084;47.912;19.044;2022-09-13T18:34:15;17.80;99.90
33761;DHT22;20084;47.912;19.044;2022-09-13T18:36:41;17.80;99.90
33761;DHT22;20084;47.912;19.044;2022-09-13T18:39:15;17.80;99.90
33761;DHT22;20084;47.912;19.044;2022-09-13T18:41:41;17.90;99.90
33761;DHT22;20084;47.912;19.044;2022-09-13T18:44:09;17.90;99.90
33761;DHT22;20084;47.912;19.044;2022-09-13T18:46:35;17.90;99.90
33761;DHT22;20084;47.912;19.044;2022-09-13T18:49:02;17.90;99.90